McCook Lake, South Dakota
Current Conditions -  °F | °C
As of 6:52 AM on Friday 24 Oct 2014 (Local Time) from KSUX Reporting Station
Clear Clear  
Wind Chill: 55°   Ceiling: Unl
Heat Index: 55°   Visibility: 7mi
Dew Point: 53°   Wind: 7mph
Humidity: 93%   Direction: 180°S
Pressure: 29.88"   Gusts: NA
Location:  42.532°N, 96.5446°W
Report Text: KSUX 241152Z 18006KT 7SM CLR 13/12 A2988 RMK AO2 SLP117 T01280117 10133 20100 56009
Loading
Personal Weather Stations






























Interactive Weather Map
Tropical Storm Tracking
New forecast layout! Learn more

10-Day Weather Forecast

Advertisements
Track Severe Weather on mobile